Enter the Airport ICAO Code

Search by Airport or City

Current Weather

LPMA | Madeira Airport

Funchal, Madeira, Portugal

Last Update 19 Minutes Ago

Sky with Few Clouds

Temperature of 19 ºC

Moderate Winds from East

Temperature

19 ºC

Dew Point Temperature

16 ºC

Relative Humidity

82.84 %

Wind Direction

East (100º, Ranging from 050º to 140º)

Wind Velocity

19 km/h (10 kt)

Gusts

None

Visibility

Greater than 10 Kilometers

Sea Level Pressure

1014 hPa (Hectopascals)

Layers of Clouds

5% to 30% of Sky Covered from 457 mts (1500 ft) Above Ground Level.

METAR LPMA 022100Z 10010KT 050V140 9999 FEW015 19/16 Q1014

Weather Forecast

LPMA | Madeira Airport

Funchal, Madeira, Portugal

Forecast valid for the next 21 Hours

From now on it is expected:

Partly Cloudy Sky

Light to Moderate Winds from Variable Directions

From now on it is expected 15 hours with intermittent periods of:

Rain

In 9 to 12 hours it is expected the begining of:

Light to Moderate Winds from NorthEast

Maximum Temperature

No Data

Minimum Temperature

No Data

TAF LPMA 021700Z 0218/0318 VRB05KT 9999 SCT015 TEMPO 0218/0312 5000 SHRA BKN013 FEW015CB BECMG 0306/0309 05008KT